createdAt,value
2022-12-08T00:46:19.086Z,7.82
2022-12-08T00:51:26.475Z,7.76
2022-12-08T00:56:50.905Z,7.83
2022-12-08T01:02:08.007Z,7.90
2022-12-08T01:07:30.261Z,8.02
2022-12-08T01:12:36.395Z,7.96
2022-12-08T01:17:52.987Z,7.99
2022-12-08T01:22:59.245Z,8.03
2022-12-08T01:28:03.069Z,7.99
2022-12-08T01:33:09.037Z,7.85
2022-12-08T01:38:16.460Z,7.77
2022-12-08T01:43:25.079Z,7.72
2022-12-08T01:48:29.216Z,7.71
2022-12-08T01:53:48.545Z,7.71
2022-12-08T01:58:59.387Z,7.73
2022-12-08T02:04:16.222Z,7.66
2022-12-08T02:09:22.871Z,7.69
2022-12-08T02:14:29.678Z,7.61
2022-12-08T02:20:16.215Z,7.63
2022-12-08T02:25:38.753Z,7.47
2022-12-08T02:30:51.034Z,7.52
2022-12-08T02:36:22.333Z,7.49
2022-12-08T02:41:38.272Z,7.22
2022-12-08T02:46:53.130Z,7.20
2022-12-08T02:51:58.587Z,7.34
2022-12-08T02:57:44.847Z,7.27
2022-12-08T03:03:46.726Z,7.05
2022-12-08T03:09:07.625Z,7.16
2022-12-08T03:14:28.912Z,7.27
2022-12-08T03:19:53.456Z,7.41
2022-12-08T03:33:27.475Z,7.34
2022-12-08T03:46:04.456Z,7.60
2022-12-08T03:51:36.774Z,7.60
2022-12-08T04:09:47.064Z,7.65
2022-12-08T04:15:58.456Z,7.71
2022-12-08T04:21:16.649Z,7.70
2022-12-08T04:26:54.854Z,7.62
2022-12-08T04:44:05.209Z,7.60
2022-12-08T04:49:30.534Z,7.64
2022-12-08T04:54:33.973Z,7.70
2022-12-08T05:00:21.056Z,7.82
2022-12-08T05:20:50.728Z,7.87
2022-12-08T05:26:00.773Z,7.89
2022-12-08T05:31:00.536Z,7.89
2022-12-08T05:35:59.578Z,7.88
2022-12-08T05:40:58.739Z,7.92
2022-12-08T05:45:59.233Z,7.97
2022-12-08T05:50:58.141Z,8.01
2022-12-08T05:55:57.223Z,7.94
2022-12-08T06:00:59.095Z,7.84
2022-12-08T06:06:01.542Z,7.86
2022-12-08T06:11:03.615Z,7.71
2022-12-08T06:16:07.521Z,7.68
2022-12-08T06:21:13.384Z,7.75
2022-12-08T06:26:16.727Z,7.75
2022-12-08T06:31:22.671Z,7.54
2022-12-08T06:36:24.620Z,7.62
2022-12-08T06:41:24.193Z,7.66
2022-12-08T06:46:29.291Z,7.69
2022-12-08T06:51:28.453Z,7.60
2022-12-08T06:56:28.297Z,7.65
2022-12-08T07:01:34.933Z,7.81
2022-12-08T07:06:34.267Z,7.71
2022-12-08T07:11:35.792Z,7.77
2022-12-08T07:16:36.812Z,7.57
2022-12-08T07:21:35.912Z,7.74
2022-12-08T07:26:35.319Z,7.83
2022-12-08T07:31:36.219Z,7.93
2022-12-08T07:36:43.214Z,8.03
2022-12-08T07:42:45.385Z,8.04
2022-12-08T07:49:27.201Z,8.03
2022-12-08T10:36:24.014Z,8.33
2022-12-08T10:41:50.482Z,8.46
2022-12-08T10:54:58.561Z,8.81
2022-12-08T11:08:18.460Z,9.24
2022-12-08T11:13:23.424Z,9.23
2022-12-08T11:18:27.128Z,9.20
2022-12-08T11:23:28.192Z,9.28
2022-12-08T11:28:28.709Z,9.25
2022-12-08T11:33:29.399Z,9.24
2022-12-08T11:38:29.746Z,9.29
2022-12-08T11:43:41.052Z,9.37
2022-12-08T11:48:48.756Z,9.40
2022-12-08T11:53:59.120Z,9.36
2022-12-08T11:59:03.867Z,9.26
2022-12-08T12:04:17.208Z,8.96
2022-12-08T12:09:21.015Z,9.01
2022-12-08T12:14:44.793Z,9.23
2022-12-08T12:19:43.824Z,9.37
2022-12-08T12:24:47.746Z,8.97
2022-12-08T12:29:55.729Z,8.83
2022-12-08T12:34:58.560Z,9.01
2022-12-08T12:40:03.292Z,9.12
2022-12-08T12:45:29.553Z,9.26
2022-12-08T12:50:44.240Z,9.23
2022-12-08T12:55:55.350Z,9.30
2022-12-08T13:01:37.215Z,9.35
2022-12-08T13:06:42.950Z,9.25
2022-12-08T13:11:49.911Z,9.09
2022-12-08T13:16:56.385Z,9.08
2022-12-08T13:21:55.408Z,8.82
2022-12-08T13:27:35.638Z,8.73
2022-12-08T13:33:17.583Z,8.89
2022-12-08T13:38:21.050Z,8.80
2022-12-08T13:43:50.981Z,8.58
2022-12-08T13:59:47.058Z,8.73
2022-12-08T14:10:14.362Z,8.78
2022-12-08T14:15:17.902Z,8.75
2022-12-08T14:20:25.629Z,8.54
2022-12-08T14:25:25.659Z,8.35
2022-12-08T14:30:30.688Z,8.33
2022-12-08T14:35:33.485Z,8.22
2022-12-08T14:40:35.462Z,8.12
2022-12-08T14:45:35.585Z,8.18
2022-12-08T14:50:43.613Z,8.25
2022-12-08T14:55:44.901Z,8.17
2022-12-08T15:00:48.452Z,7.59
2022-12-08T15:05:56.889Z,7.84
2022-12-08T15:11:15.313Z,7.74
2022-12-08T15:16:28.358Z,7.75
2022-12-08T15:21:36.990Z,7.78
2022-12-08T15:26:41.319Z,7.92
2022-12-08T15:31:41.140Z,7.95
2022-12-08T15:36:43.181Z,7.91
2022-12-08T15:41:42.332Z,7.86
2022-12-08T15:46:41.620Z,7.95
2022-12-08T15:51:42.603Z,7.93
2022-12-08T15:57:17.195Z,7.95
2022-12-08T16:02:08.329Z,7.95
2022-12-08T16:07:22.534Z,7.96
2022-12-08T16:18:04.525Z,8.02
2022-12-08T16:23:19.728Z,8.15
2022-12-08T16:28:53.290Z,8.90
2022-12-08T16:33:52.646Z,9.76
2022-12-08T16:38:53.707Z,9.28
2022-12-08T16:43:53.705Z,9.05
2022-12-08T16:48:56.942Z,8.84
2022-12-08T16:53:58.703Z,8.90
2022-12-08T16:59:01.256Z,8.68
2022-12-08T17:09:31.142Z,8.35
2022-12-08T17:14:35.120Z,8.49
2022-12-08T17:19:35.850Z,8.43
2022-12-08T17:24:52.031Z,8.53
2022-12-08T17:29:51.349Z,8.52
2022-12-08T17:34:50.460Z,8.52
2022-12-08T17:39:51.044Z,8.53
2022-12-08T17:44:51.349Z,8.49
2022-12-08T17:49:54.274Z,8.49
2022-12-08T17:55:00.516Z,8.55
2022-12-08T18:00:09.129Z,8.55
2022-12-08T18:05:13.021Z,8.52
2022-12-08T18:10:14.130Z,8.35
2022-12-08T18:15:20.819Z,8.30
2022-12-08T18:20:21.622Z,8.27
2022-12-08T18:25:25.073Z,8.34
2022-12-08T18:30:26.909Z,8.53
2022-12-08T18:35:27.363Z,8.46
2022-12-08T18:40:28.542Z,8.53
2022-12-08T18:45:27.766Z,8.58
2022-12-08T18:50:30.240Z,8.64
2022-12-08T18:55:33.719Z,8.61
2022-12-08T19:00:32.897Z,8.52
2022-12-08T19:05:32.253Z,8.49
2022-12-08T19:10:32.490Z,8.35
2022-12-08T19:15:33.458Z,8.47
2022-12-08T19:20:32.789Z,8.50
2022-12-08T19:25:35.401Z,8.13
2022-12-08T19:30:39.778Z,8.30
2022-12-08T19:35:49.048Z,8.41
2022-12-08T19:41:08.850Z,8.36
2022-12-08T19:46:19.421Z,8.40
2022-12-08T19:51:20.922Z,8.42
2022-12-08T19:56:20.133Z,8.41
2022-12-08T20:01:21.925Z,8.36
2022-12-08T20:06:32.670Z,8.40
2022-12-08T20:11:31.892Z,8.49
2022-12-08T20:16:45.971Z,8.53
2022-12-08T20:22:17.924Z,8.55
2022-12-08T20:27:17.203Z,8.53
2022-12-08T20:32:18.835Z,8.51
2022-12-08T20:37:20.612Z,8.58
2022-12-08T20:42:24.261Z,8.60
2022-12-08T20:47:27.876Z,8.58
2022-12-08T20:52:30.720Z,8.59
2022-12-08T20:57:30.073Z,8.64
2022-12-08T21:02:33.685Z,8.63
2022-12-08T21:07:33.957Z,8.72
2022-12-08T21:12:33.692Z,8.72
2022-12-08T21:17:36.864Z,8.67
2022-12-08T21:22:36.171Z,8.77
2022-12-08T21:27:35.440Z,8.87
2022-12-08T21:32:36.701Z,8.83
2022-12-08T21:37:38.361Z,8.65
2022-12-08T21:42:47.256Z,8.50
2022-12-08T21:47:50.076Z,8.66
2022-12-08T21:52:50.457Z,8.74
2022-12-08T21:58:09.365Z,8.81
2022-12-08T22:03:14.218Z,8.80
2022-12-08T22:09:29.740Z,8.83
2022-12-08T22:14:29.487Z,8.85
2022-12-08T22:19:31.945Z,8.82
2022-12-08T22:24:32.552Z,8.80
2022-12-08T22:29:32.327Z,8.68
2022-12-08T22:34:42.224Z,8.66
2022-12-08T22:39:50.591Z,8.74
2022-12-08T22:44:49.766Z,8.85
2022-12-08T22:49:53.576Z,8.83
2022-12-08T22:54:52.791Z,8.75
2022-12-08T22:59:51.744Z,8.86
2022-12-08T23:04:56.750Z,8.89
2022-12-08T23:09:56.489Z,8.88
2022-12-08T23:14:55.572Z,8.71
2022-12-08T23:19:58.795Z,8.59
2022-12-08T23:24:58.322Z,8.79
2022-12-08T23:29:58.116Z,8.77
2022-12-08T23:34:59.011Z,8.70
2022-12-08T23:39:58.180Z,8.55
2022-12-08T23:44:57.511Z,8.68
2022-12-08T23:49:59.035Z,8.79
2022-12-08T23:54:59.887Z,8.87
2022-12-08T23:59:59.299Z,8.54
